Time;durP1;ratioP1;P1;durP2;ratioP2;P2;SDS_P1;SDS_P2;PMS_P1;PMS_P2;Temp;Humidity;BMP_temperature;BMP_pressure;BME280_temperature;BME280_humidity;BME280_pressure;Samples;Min_cycle;Max_cycle;Signal;HPM_P1;HPM_P2
2021/12/11 00:00:33;;;;;;;2.42;2.28;;;5.00;99.90;;;;;;5096167;28;20246;-69
2021/12/11 00:03:03;;;;;;;2.65;2.45;;;5.00;99.90;;;;;;5095292;28;20304;-69
2021/12/11 00:05:31;;;;;;;2.30;2.10;;;5.00;99.90;;;;;;5094448;28;20224;-68
2021/12/11 00:07:59;;;;;;;2.67;2.47;;;4.90;99.90;;;;;;5095245;28;20607;-69
2021/12/11 00:10:30;;;;;;;2.30;2.10;;;4.90;99.90;;;;;;5095205;28;20550;-70
2021/12/11 00:13:01;;;;;;;2.20;2.00;;;4.90;99.90;;;;;;5094987;28;20222;-70
2021/12/11 00:15:34;;;;;;;2.30;2.08;;;4.90;99.90;;;;;;5094880;28;20190;-69
2021/12/11 00:18:03;;;;;;;2.33;2.13;;;4.90;99.90;;;;;;5094504;28;20212;-70
2021/12/11 00:20:33;;;;;;;2.10;2.00;;;4.90;99.90;;;;;;5094800;28;20202;-70
2021/12/11 00:23:01;;;;;;;3.13;2.05;;;5.00;99.90;;;;;;5095477;28;20309;-70
2021/12/11 00:25:29;;;;;;;2.03;1.92;;;4.90;99.90;;;;;;5094943;28;20321;-68
2021/12/11 00:28:04;;;;;;;2.00;1.90;;;5.00;99.90;;;;;;5094341;28;20604;-68
2021/12/11 00:30:35;;;;;;;1.90;1.80;;;4.90;99.90;;;;;;5094520;28;20237;-69
2021/12/11 00:33:06;;;;;;;1.60;1.50;;;4.90;99.90;;;;;;5094580;28;20233;-68
2021/12/11 00:35:35;;;;;;;1.90;1.80;;;4.90;99.90;;;;;;5093956;28;20206;-68
2021/12/11 00:38:05;;;;;;;1.63;1.52;;;4.90;99.90;;;;;;5094165;28;20667;-68
2021/12/11 00:40:34;;;;;;;1.90;1.77;;;4.90;99.90;;;;;;5094567;28;20208;-69
2021/12/11 00:43:04;;;;;;;1.85;1.75;;;5.00;99.90;;;;;;5094167;28;20309;-69
2021/12/11 00:45:34;;;;;;;1.90;1.70;;;5.20;99.90;;;;;;5094255;28;20230;-70
2021/12/11 00:48:05;;;;;;;2.10;2.00;;;5.20;99.90;;;;;;5094060;28;20297;-68
2021/12/11 00:50:35;;;;;;;2.83;2.20;;;5.30;99.90;;;;;;5094350;28;20197;-70
2021/12/11 00:53:09;;;;;;;2.70;2.50;;;5.30;99.90;;;;;;5094111;28;20644;-69
2021/12/11 00:55:39;;;;;;;3.72;2.45;;;5.20;99.90;;;;;;5094226;28;20319;-68
2021/12/11 00:58:12;;;;;;;3.65;2.80;;;5.00;99.90;;;;;;5093246;28;20208;-66
2021/12/11 01:00:44;;;;;;;3.05;2.55;;;4.90;99.90;;;;;;5093500;28;20225;-67
2021/12/11 01:03:12;;;;;;;3.55;2.90;;;4.70;99.90;;;;;;5093296;28;20312;-68
2021/12/11 01:05:43;;;;;;;3.08;2.78;;;4.70;99.90;;;;;;5093285;28;20222;-68
2021/12/11 01:08:23;;;;;;;4.55;3.60;;;4.60;99.90;;;;;;5093039;28;20288;-67
2021/12/11 01:10:54;;;;;;;4.97;3.53;;;4.20;99.90;;;;;;5093263;28;20293;-67
2021/12/11 01:13:25;;;;;;;4.07;3.00;;;4.00;99.90;;;;;;5093213;28;20591;-68
2021/12/11 01:16:00;;;;;;;3.50;3.20;;;4.10;99.90;;;;;;5093088;28;20198;-68
2021/12/11 01:18:35;;;;;;;3.85;3.45;;;4.10;99.90;;;;;;5092897;28;20201;-67
2021/12/11 01:21:14;;;;;;;3.40;2.88;;;4.00;99.90;;;;;;5092996;28;20237;-68
2021/12/11 01:24:07;;;;;;;4.15;3.50;;;3.90;99.90;;;;;;5092577;28;20788;-67
2021/12/11 01:26:40;;;;;;;3.67;2.90;;;4.10;99.90;;;;;;5092664;28;20221;-67
2021/12/11 01:29:09;;;;;;;3.80;3.03;;;4.20;99.90;;;;;;5093020;28;20637;-68
2021/12/11 01:31:37;;;;;;;2.60;2.40;;;4.30;99.90;;;;;;5092809;28;20308;-68
2021/12/11 01:34:06;;;;;;;2.22;2.03;;;4.20;99.90;;;;;;5092475;28;20216;-67
2021/12/11 01:36:35;;;;;;;2.45;2.25;;;4.40;99.90;;;;;;5092793;28;20210;-67
2021/12/11 01:39:06;;;;;;;2.65;2.45;;;4.50;99.90;;;;;;5092863;28;20571;-67
2021/12/11 01:41:34;;;;;;;2.10;1.90;;;4.50;99.90;;;;;;5092806;28;20198;-67
2021/12/11 01:44:06;;;;;;;2.20;2.00;;;4.50;99.90;;;;;;5092800;28;20635;-68
2021/12/11 01:46:33;;;;;;;2.03;1.80;;;4.60;99.90;;;;;;5092656;28;20317;-68
2021/12/11 01:49:05;;;;;;;2.40;2.20;;;4.70;99.90;;;;;;5092947;28;20210;-68
2021/12/11 01:51:35;;;;;;;2.05;1.95;;;4.70;99.90;;;;;;5092852;28;20219;-69
2021/12/11 01:54:06;;;;;;;2.97;2.50;;;4.80;99.90;;;;;;5092526;28;20198;-68
2021/12/11 01:56:35;;;;;;;3.00;2.60;;;4.70;99.90;;;;;;5092422;28;20208;-69
2021/12/11 01:59:06;;;;;;;2.15;1.65;;;4.80;99.90;;;;;;5092615;28;20613;-73
2021/12/11 02:01:37;;;;;;;1.88;1.60;;;4.80;99.90;;;;;;5094455;28;20292;-68
2021/12/11 02:04:08;;;;;;;1.33;1.23;;;4.70;99.90;;;;;;5094286;28;20285;-68
2021/12/11 02:06:39;;;;;;;1.50;1.40;;;4.70;99.90;;;;;;5093816;28;20597;-68
2021/12/11 02:09:15;;;;;;;1.60;1.50;;;4.60;99.90;;;;;;5094357;28;20206;-68
2021/12/11 02:11:44;;;;;;;1.60;1.50;;;4.60;99.90;;;;;;5094071;28;20238;-69
2021/12/11 02:14:13;;;;;;;1.00;1.00;;;4.60;99.90;;;;;;5093997;28;20666;-68
2021/12/11 02:16:44;;;;;;;1.02;0.90;;;4.50;99.90;;;;;;5094012;28;20231;-68
2021/12/11 02:19:15;;;;;;;1.67;1.30;;;4.50;99.90;;;;;;5094150;28;20703;-68
2021/12/11 02:21:50;;;;;;;1.20;1.10;;;4.50;99.90;;;;;;5094327;28;20321;-68
2021/12/11 02:24:22;;;;;;;1.30;1.20;;;4.50;99.90;;;;;;5094032;28;20212;-68
2021/12/11 02:26:50;;;;;;;1.55;1.25;;;4.40;99.90;;;;;;5093668;28;20283;-68
2021/12/11 02:29:21;;;;;;;2.00;1.58;;;4.40;99.90;;;;;;5093894;28;20205;-68
2021/12/11 02:31:52;;;;;;;1.63;1.27;;;4.30;99.90;;;;;;5093984;28;20312;-68
2021/12/11 02:34:23;;;;;;;1.10;1.00;;;4.40;99.90;;;;;;5095494;28;20296;-68
2021/12/11 02:36:56;;;;;;;1.50;1.17;;;4.20;99.90;;;;;;5097709;28;20202;-68
2021/12/11 02:39:27;;;;;;;1.13;1.10;;;4.30;99.90;;;;;;5097571;28;20212;-68
2021/12/11 02:41:59;;;;;;;1.13;1.13;;;4.30;99.90;;;;;;5097329;28;20244;-68
2021/12/11 02:44:30;;;;;;;1.05;1.05;;;4.20;99.90;;;;;;5097536;28;20186;-68
2021/12/11 02:47:03;;;;;;;1.35;1.00;;;4.20;99.90;;;;;;5097365;28;20207;-68
2021/12/11 02:49:35;;;;;;;2.65;1.20;;;4.30;99.90;;;;;;5097153;28;20206;-68
2021/12/11 02:52:08;;;;;;;1.35;1.00;;;4.20;99.90;;;;;;5097244;28;20312;-69
2021/12/11 02:54:39;;;;;;;1.60;1.50;;;4.20;99.90;;;;;;5097303;28;20182;-68
2021/12/11 02:57:12;;;;;;;1.00;1.00;;;4.20;99.90;;;;;;5097574;28;20293;-69
2021/12/11 02:59:43;;;;;;;1.52;1.42;;;4.20;99.90;;;;;;5097102;28;20289;-68
2021/12/11 03:02:13;;;;;;;1.73;1.50;;;4.20;99.90;;;;;;5097194;28;20226;-69
2021/12/11 03:04:47;;;;;;;2.08;1.50;;;4.20;99.90;;;;;;5096931;28;20666;-68
2021/12/11 03:07:17;;;;;;;1.60;1.50;;;4.20;99.90;;;;;;5097281;28;20217;-68
2021/12/11 03:09:53;;;;;;;1.92;1.80;;;4.30;99.90;;;;;;5097276;28;20206;-69
2021/12/11 03:12:21;;;;;;;1.60;1.50;;;4.30;99.90;;;;;;5097111;28;20336;-69
2021/12/11 03:14:48;;;;;;;2.08;1.95;;;4.30;99.90;;;;;;5096712;28;20209;-68
2021/12/11 03:17:17;;;;;;;2.00;1.90;;;4.30;99.90;;;;;;5097005;28;20202;-68
2021/12/11 03:19:45;;;;;;;2.00;1.90;;;4.30;99.90;;;;;;5097402;28;20201;-68
2021/12/11 03:22:17;;;;;;;2.72;2.50;;;4.30;99.90;;;;;;5097213;28;20218;-69
2021/12/11 03:24:45;;;;;;;2.65;2.45;;;4.30;99.90;;;;;;5096242;28;20669;-69
2021/12/11 03:27:12;;;;;;;2.90;2.60;;;4.30;99.90;;;;;;5096614;28;20228;-69
2021/12/11 03:29:40;;;;;;;2.65;2.40;;;4.30;99.90;;;;;;5096988;28;20212;-68
2021/12/11 03:32:10;;;;;;;2.72;2.53;;;4.40;99.90;;;;;;5096519;28;20222;-68
2021/12/11 03:34:38;;;;;;;2.78;2.58;;;4.30;99.90;;;;;;5097085;28;20600;-69
2021/12/11 03:37:08;;;;;;;3.78;3.50;;;4.40;99.90;;;;;;5096498;28;20208;-68
2021/12/11 03:39:40;;;;;;;2.60;2.50;;;4.50;99.90;;;;;;5096030;28;20293;-68
2021/12/11 03:42:11;;;;;;;3.60;3.30;;;4.50;99.90;;;;;;5096086;28;20232;-68
2021/12/11 03:44:39;;;;;;;3.10;2.90;;;4.50;99.90;;;;;;5095896;28;20186;-68
2021/12/11 03:47:08;;;;;;;3.72;3.42;;;4.50;99.90;;;;;;5096129;28;20571;-68
2021/12/11 03:49:35;;;;;;;2.40;2.20;;;4.50;99.90;;;;;;5095884;28;20293;-68
2021/12/11 03:52:04;;;;;;;3.08;2.88;;;4.50;99.90;;;;;;5095957;28;20226;-68
2021/12/11 03:54:35;;;;;;;2.92;2.72;;;4.40;99.90;;;;;;5096035;28;20244;-69
2021/12/11 03:57:05;;;;;;;3.50;3.20;;;4.40;99.90;;;;;;5096160;28;20238;-68
2021/12/11 03:59:32;;;;;;;3.60;3.30;;;4.40;99.90;;;;;;5096147;28;20202;-68
2021/12/11 04:02:03;;;;;;;3.30;3.10;;;4.40;99.90;;;;;;5095998;28;20230;-68
2021/12/11 04:04:32;;;;;;;4.20;3.90;;;4.40;99.90;;;;;;5095751;28;20206;-69
2021/12/11 04:07:01;;;;;;;4.43;4.13;;;4.40;99.90;;;;;;5095828;28;20222;-69
2021/12/11 04:09:29;;;;;;;4.38;4.07;;;4.50;99.90;;;;;;5096025;28;20198;-68
2021/12/11 04:11:57;;;;;;;4.75;4.45;;;4.50;99.90;;;;;;5096060;28;20218;-68
2021/12/11 04:14:28;;;;;;;4.00;3.70;;;4.50;99.90;;;;;;5095265;28;20648;-69
2021/12/11 04:16:57;;;;;;;4.55;4.25;;;4.40;99.90;;;;;;5095403;28;20548;-68
2021/12/11 04:19:24;;;;;;;4.55;4.25;;;4.40;99.90;;;;;;5095758;28;20209;-68
2021/12/11 04:21:52;;;;;;;5.50;5.10;;;4.40;99.90;;;;;;5095774;28;20571;-68
2021/12/11 04:24:22;;;;;;;3.50;3.30;;;4.40;99.90;;;;;;5095747;28;20208;-68
2021/12/11 04:26:50;;;;;;;4.53;4.13;;;4.40;99.90;;;;;;5095143;28;20222;-68
2021/12/11 04:29:18;;;;;;;3.83;3.53;;;4.30;99.90;;;;;;5095176;28;20198;-68
2021/12/11 04:31:47;;;;;;;5.40;5.00;;;4.20;99.90;;;;;;5094916;28;20222;-69
2021/12/11 04:34:16;;;;;;;5.30;4.90;;;4.20;99.90;;;;;;5094901;28;20210;-69
2021/12/11 04:36:48;;;;;;;6.15;5.65;;;4.20;99.90;;;;;;5094994;28;20216;-68
2021/12/11 04:39:18;;;;;;;7.90;6.65;;;4.30;99.90;;;;;;5095899;28;20201;-68
2021/12/11 04:41:54;;;;;;;6.70;5.80;;;4.30;99.90;;;;;;5094876;28;20226;-69
2021/12/11 04:44:25;;;;;;;6.03;5.55;;;4.40;99.90;;;;;;5095176;28;20209;-69
2021/12/11 04:46:53;;;;;;;6.38;5.80;;;4.40;99.90;;;;;;5095401;28;20279;-68
2021/12/11 04:49:29;;;;;;;4.47;4.07;;;4.40;99.90;;;;;;5095315;28;20206;-69
2021/12/11 04:52:03;;;;;;;5.72;5.22;;;4.30;99.90;;;;;;5094716;28;20225;-68
2021/12/11 04:54:41;;;;;;;7.47;6.78;;;4.30;99.90;;;;;;5094780;28;20209;-69
2021/12/11 05:00:16;;;;;;;6.25;5.75;;;4.30;99.90;;;;;;5091597;28;20510;-68
2021/12/11 05:05:52;;;;;;;6.30;5.80;;;4.30;99.90;;;;;;5075397;28;20285;-68
2021/12/11 05:11:08;;;;;;;9.20;8.30;;;4.30;99.90;;;;;;5091086;28;20251;-68
2021/12/11 05:13:35;;;;;;;8.63;7.82;;;4.30;99.90;;;;;;5090756;28;20222;-68
2021/12/11 05:16:06;;;;;;;6.95;6.25;;;4.30;99.90;;;;;;5090669;28;20206;-68
2021/12/11 05:18:37;;;;;;;7.93;7.15;;;4.30;99.90;;;;;;5090737;28;20217;-68
2021/12/11 05:21:08;;;;;;;7.95;7.25;;;4.30;99.90;;;;;;5090879;28;20191;-68
2021/12/11 05:23:35;;;;;;;6.95;6.35;;;4.30;99.90;;;;;;5091035;28;20230;-68
2021/12/11 05:26:02;;;;;;;7.10;6.40;;;4.40;99.90;;;;;;5090874;28;20202;-68
2021/12/11 05:28:28;;;;;;;6.97;6.28;;;4.30;99.90;;;;;;5090951;28;20202;-68
2021/12/11 05:30:59;;;;;;;8.05;7.25;;;4.20;99.90;;;;;;5091179;28;20198;-68
2021/12/11 05:33:27;;;;;;;6.65;5.95;;;4.20;99.90;;;;;;5091121;28;20228;-68
2021/12/11 05:35:55;;;;;;;5.70;5.10;;;4.20;99.90;;;;;;5090526;28;20229;-68
2021/12/11 05:38:24;;;;;;;6.53;5.82;;;4.10;99.90;;;;;;5090515;28;20222;-68
2021/12/11 05:40:55;;;;;;;6.00;5.50;;;4.10;99.90;;;;;;5090969;28;20659;-68
2021/12/11 05:43:22;;;;;;;8.38;7.30;;;4.10;99.90;;;;;;5091143;28;20233;-68
2021/12/11 05:45:49;;;;;;;10.95;8.73;;;4.10;99.90;;;;;;5090272;28;20542;-68
2021/12/11 05:48:16;;;;;;;8.82;7.45;;;4.20;99.90;;;;;;5090212;28;20199;-69
2021/12/11 05:50:49;;;;;;;8.32;7.40;;;4.20;99.90;;;;;;5090666;28;20202;-68
2021/12/11 05:53:18;;;;;;;8.25;7.50;;;4.30;99.90;;;;;;5090253;28;20222;-69
2021/12/11 05:55:47;;;;;;;7.78;7.07;;;4.40;99.90;;;;;;5090256;28;20240;-68
2021/12/11 05:58:24;;;;;;;9.20;8.18;;;4.40;99.90;;;;;;5090351;28;20605;-68
2021/12/11 06:00:53;;;;;;;8.30;7.50;;;4.40;99.90;;;;;;5090191;28;20292;-68
2021/12/11 06:03:20;;;;;;;9.02;8.05;;;4.40;99.90;;;;;;5090376;28;20232;-68
2021/12/11 06:05:48;;;;;;;9.02;8.13;;;4.40;99.90;;;;;;5090141;28;20210;-68
2021/12/11 06:08:15;;;;;;;7.93;7.10;;;4.30;99.90;;;;;;5090295;28;20241;-68
2021/12/11 06:10:44;;;;;;;7.75;6.97;;;4.30;99.90;;;;;;5080770;28;20209;-68
2021/12/11 06:13:11;;;;;;;7.70;6.90;;;4.30;99.90;;;;;;5076220;28;20313;-68
2021/12/11 06:15:39;;;;;;;8.52;7.30;;;4.30;99.90;;;;;;5076346;28;20207;-68
2021/12/11 06:18:09;;;;;;;8.90;7.70;;;4.20;99.90;;;;;;5076544;28;20210;-68
2021/12/11 06:20:36;;;;;;;8.52;7.70;;;4.20;99.90;;;;;;5076684;28;20256;-68
2021/12/11 06:23:04;;;;;;;9.20;8.30;;;4.20;99.90;;;;;;5076656;28;20218;-68
2021/12/11 06:25:34;;;;;;;9.10;8.20;;;4.30;99.90;;;;;;5076741;28;20209;-68
2021/12/11 06:28:02;;;;;;;11.10;9.88;;;4.20;99.90;;;;;;5076302;28;20605;-68
2021/12/11 06:30:29;;;;;;;11.48;10.27;;;4.20;99.90;;;;;;5076404;28;20199;-68
2021/12/11 06:32:56;;;;;;;11.93;9.60;;;4.20;99.90;;;;;;5076590;28;20223;-68
2021/12/11 06:35:28;;;;;;;10.95;9.43;;;4.20;99.90;;;;;;5076022;28;20199;-68
2021/12/11 06:37:55;;;;;;;10.38;9.20;;;4.20;99.90;;;;;;5076382;28;20210;-69
2021/12/11 06:40:25;;;;;;;9.23;7.57;;;4.30;99.90;;;;;;5075914;28;20236;-68
2021/12/11 06:42:53;;;;;;;11.55;9.65;;;4.20;99.90;;;;;;5076916;28;20225;-68
2021/12/11 06:45:20;;;;;;;11.13;9.35;;;4.20;99.90;;;;;;5075699;28;20207;-68
2021/12/11 06:47:47;;;;;;;9.95;8.13;;;4.20;99.90;;;;;;5075976;28;20213;-68
2021/12/11 06:50:14;;;;;;;9.57;8.57;;;4.20;99.90;;;;;;5076140;28;20290;-68
2021/12/11 06:52:41;;;;;;;10.27;9.10;;;4.20;99.90;;;;;;5075767;28;20592;-68
2021/12/11 06:55:10;;;;;;;12.70;10.35;;;4.20;99.90;;;;;;5075379;28;20203;-68
2021/12/11 06:57:38;;;;;;;11.48;9.75;;;4.10;99.90;;;;;;5075755;28;20199;-68
2021/12/11 07:00:07;;;;;;;14.35;12.02;;;4.20;99.90;;;;;;5075895;28;20226;-68
2021/12/11 07:02:35;;;;;;;13.40;11.50;;;4.20;99.90;;;;;;5076032;28;20572;-68
2021/12/11 07:05:02;;;;;;;13.57;11.40;;;4.30;99.90;;;;;;5075637;28;20213;-69
2021/12/11 07:07:33;;;;;;;11.55;9.93;;;4.40;99.90;;;;;;5075423;28;20218;-68
2021/12/11 07:10:00;;;;;;;12.52;11.00;;;4.40;99.90;;;;;;5075340;28;20194;-68
2021/12/11 07:12:28;;;;;;;12.23;10.88;;;4.40;99.90;;;;;;5075205;28;20227;-68
2021/12/11 07:14:56;;;;;;;14.02;11.15;;;4.40;99.90;;;;;;5075150;28;20206;-68
2021/12/11 07:17:23;;;;;;;12.10;10.50;;;4.30;99.90;;;;;;5075608;28;20209;-68
2021/12/11 07:19:51;;;;;;;11.93;10.63;;;4.20;99.90;;;;;;5075022;28;20227;-68
2021/12/11 07:22:18;;;;;;;14.48;10.75;;;4.20;99.90;;;;;;5074297;28;20227;-68
2021/12/11 07:24:49;;;;;;;13.27;11.68;;;4.30;99.90;;;;;;5074788;28;20202;-68
2021/12/11 07:27:17;;;;;;;13.10;11.25;;;4.20;99.90;;;;;;5075339;28;20298;-68
2021/12/11 07:29:46;;;;;;;13.50;11.13;;;4.10;99.90;;;;;;5075376;28;20289;-67
2021/12/11 07:32:14;;;;;;;14.40;11.27;;;4.20;99.90;;;;;;5075254;28;20222;-68
2021/12/11 07:34:42;;;;;;;13.25;11.40;;;4.20;99.90;;;;;;5074588;28;20202;-68
2021/12/11 07:37:09;;;;;;;15.20;12.98;;;4.20;99.90;;;;;;5074979;28;20214;-68
2021/12/11 07:39:36;;;;;;;18.95;14.27;;;4.30;99.90;;;;;;5074859;28;20318;-68
2021/12/11 07:42:04;;;;;;;12.80;10.05;;;4.40;99.90;;;;;;5074758;28;20584;-68
2021/12/11 07:44:31;;;;;;;15.13;12.88;;;4.40;99.90;;;;;;5075099;28;20569;-68
2021/12/11 07:47:00;;;;;;;15.98;13.13;;;4.40;99.90;;;;;;5074772;28;20199;-68
2021/12/11 07:49:28;;;;;;;17.30;13.45;;;4.40;99.90;;;;;;5074723;28;20198;-68
2021/12/11 07:51:56;;;;;;;15.65;11.60;;;4.40;99.90;;;;;;5074757;28;20560;-68
2021/12/11 07:54:23;;;;;;;13.60;11.57;;;4.40;99.90;;;;;;5074783;28;20199;-69
2021/12/11 07:56:53;;;;;;;15.43;12.85;;;4.40;99.90;;;;;;5074759;28;20221;-68
2021/12/11 07:59:20;;;;;;;16.35;13.02;;;4.50;99.90;;;;;;5074066;28;20281;-67
2021/12/11 08:01:49;;;;;;;17.85;13.55;;;4.50;99.90;;;;;;5074394;28;20711;-68
2021/12/11 08:04:16;;;;;;;16.40;13.25;;;4.60;99.90;;;;;;5074590;28;20209;-68
2021/12/11 08:06:45;;;;;;;18.05;12.85;;;4.60;99.90;;;;;;5074454;28;20213;-68
2021/12/11 08:09:15;;;;;;;19.15;14.75;;;4.60;99.90;;;;;;5074728;28;20195;-68
2021/12/11 08:11:43;;;;;;;18.02;14.32;;;4.70;99.90;;;;;;5074789;28;20213;-68
2021/12/11 08:14:10;;;;;;;20.88;14.38;;;4.70;99.90;;;;;;5074394;28;20202;-68
2021/12/11 08:16:45;;;;;;;18.63;15.65;;;4.70;99.90;;;;;;5074157;28;20199;-68
2021/12/11 08:19:14;;;;;;;18.58;13.50;;;4.50;99.90;;;;;;5074207;28;20676;-68
2021/12/11 08:21:41;;;;;;;16.48;12.77;;;4.50;99.90;;;;;;5074544;28;20206;-68
2021/12/11 08:24:09;;;;;;;20.20;15.63;;;4.50;99.90;;;;;;5074521;28;20675;-68
2021/12/11 08:26:39;;;;;;;17.98;12.90;;;4.50;99.90;;;;;;5073696;28;20203;-68
2021/12/11 08:29:08;;;;;;;17.13;12.98;;;4.50;99.90;;;;;;5074093;28;20234;-68
2021/12/11 08:31:35;;;;;;;15.55;11.70;;;4.40;99.90;;;;;;5073917;28;20211;-68
2021/12/11 08:34:02;;;;;;;19.15;14.73;;;4.40;99.90;;;;;;5073803;28;20199;-68
2021/12/11 08:36:29;;;;;;;18.10;14.65;;;4.50;99.90;;;;;;5074300;28;20202;-68
2021/12/11 08:38:59;;;;;;;17.48;13.45;;;4.40;99.90;;;;;;5074072;28;20203;-68
2021/12/11 08:41:29;;;;;;;19.25;14.05;;;4.30;99.90;;;;;;5073771;28;20203;-68
2021/12/11 08:44:00;;;;;;;19.05;13.52;;;4.30;99.90;;;;;;5073962;28;20664;-68
2021/12/11 08:46:29;;;;;;;19.45;15.00;;;4.40;99.90;;;;;;5074127;28;20245;-68
2021/12/11 08:48:58;;;;;;;19.23;14.73;;;4.50;99.90;;;;;;5074169;28;20199;-68
2021/12/11 08:51:28;;;;;;;22.85;16.67;;;4.50;99.90;;;;;;5074158;28;20207;-68
2021/12/11 08:53:56;;;;;;;16.92;13.02;;;4.50;99.90;;;;;;5074385;28;20213;-68
2021/12/11 08:56:23;;;;;;;19.60;14.25;;;4.60;99.90;;;;;;5073790;28;20245;-68
2021/12/11 08:58:53;;;;;;;17.05;13.00;;;4.60;99.90;;;;;;5073342;28;20207;-68
2021/12/11 09:01:26;;;;;;;18.67;13.52;;;4.60;99.90;;;;;;5074102;28;20649;-68
2021/12/11 09:03:57;;;;;;;18.77;14.65;;;4.60;99.90;;;;;;5073651;28;20194;-68
2021/12/11 09:06:28;;;;;;;14.80;11.55;;;4.70;99.90;;;;;;5073622;28;20213;-68
2021/12/11 09:08:58;;;;;;;18.38;13.93;;;4.70;99.90;;;;;;5074031;28;20213;-68
2021/12/11 09:11:29;;;;;;;18.08;13.15;;;4.70;99.90;;;;;;5073893;28;20245;-68
2021/12/11 09:14:02;;;;;;;17.63;12.30;;;4.80;99.90;;;;;;5074368;28;20187;-68
2021/12/11 09:16:33;;;;;;;14.18;10.75;;;4.80;99.90;;;;;;5073293;28;20205;-68
2021/12/11 09:19:05;;;;;;;12.63;8.27;;;4.80;99.90;;;;;;5073656;28;20206;-68
2021/12/11 09:21:36;;;;;;;16.83;12.55;;;4.70;99.90;;;;;;5073542;28;20206;-68
2021/12/11 09:24:08;;;;;;;15.70;12.35;;;4.70;99.90;;;;;;5074324;28;20183;-68
2021/12/11 09:26:39;;;;;;;14.38;11.98;;;4.80;99.90;;;;;;5073141;28;20206;-68
2021/12/11 09:29:13;;;;;;;15.70;12.55;;;4.80;99.90;;;;;;5073319;28;20211;-69
2021/12/11 09:31:45;;;;;;;16.27;12.35;;;4.80;99.90;;;;;;5073365;28;20556;-68
2021/12/11 09:34:17;;;;;;;16.55;11.80;;;4.90;99.90;;;;;;5073431;28;20621;-68
2021/12/11 09:36:47;;;;;;;16.15;12.75;;;4.90;99.90;;;;;;5073437;28;20206;-68
2021/12/11 09:39:19;;;;;;;15.35;12.73;;;4.90;99.90;;;;;;5073588;28;20229;-68
2021/12/11 09:41:46;;;;;;;15.40;12.18;;;5.00;99.90;;;;;;5073266;28;20310;-68
2021/12/11 09:44:17;;;;;;;14.55;10.88;;;5.00;99.90;;;;;;5073482;28;20567;-68
2021/12/11 09:46:48;;;;;;;15.10;10.57;;;5.10;99.90;;;;;;5076876;28;20220;-68
2021/12/11 09:49:20;;;;;;;14.10;11.45;;;5.00;99.90;;;;;;5077492;28;20202;-68
2021/12/11 09:51:48;;;;;;;13.80;11.23;;;5.00;99.90;;;;;;5077378;28;20219;-68
2021/12/11 09:54:18;;;;;;;15.30;12.00;;;5.10;99.90;;;;;;5077026;28;20313;-68
2021/12/11 09:56:48;;;;;;;16.77;12.82;;;5.20;99.90;;;;;;5076693;28;20203;-68
2021/12/11 09:59:20;;;;;;;14.82;12.00;;;5.30;99.90;;;;;;5076729;28;20233;-68
2021/12/11 10:01:51;;;;;;;17.77;12.57;;;5.30;99.90;;;;;;5077018;28;20223;-68
2021/12/11 10:04:22;;;;;;;16.77;12.20;;;5.40;99.90;;;;;;5077361;28;20188;-68
2021/12/11 10:07:13;;;;;;;15.20;11.10;;;5.50;99.90;;;;;;5076941;28;20202;-68
2021/12/11 10:09:41;;;;;;;13.90;11.43;;;5.50;99.90;;;;;;5076480;28;20203;-68
2021/12/11 10:12:13;;;;;;;12.85;10.60;;;5.50;99.90;;;;;;5076606;28;20227;-68
2021/12/11 10:14:46;;;;;;;14.20;11.60;;;5.50;99.90;;;;;;5076901;28;20187;-68
2021/12/11 10:17:17;;;;;;;12.05;10.20;;;5.50;99.90;;;;;;5076291;28;20199;-68
2021/12/11 10:19:45;;;;;;;11.07;9.55;;;5.60;99.90;;;;;;5076513;28;20219;-68
2021/12/11 10:22:16;;;;;;;12.77;10.55;;;5.60;99.90;;;;;;5076201;28;20255;-68
2021/12/11 10:24:44;;;;;;;16.10;11.27;;;5.60;99.90;;;;;;5076291;28;20187;-68
2021/12/11 10:27:15;;;;;;;9.90;8.15;;;5.60;99.90;;;;;;5070423;28;20211;-68
2021/12/11 10:29:45;;;;;;;11.90;9.98;;;5.50;99.90;;;;;;5063804;28;20269;-68
2021/12/11 10:32:18;;;;;;;10.38;9.13;;;5.50;99.90;;;;;;5054924;28;20269;-69
2021/12/11 10:34:50;;;;;;;12.77;10.20;;;5.60;99.90;;;;;;5054703;28;20204;-68
2021/12/11 10:37:21;;;;;;;12.13;10.20;;;5.60;99.90;;;;;;5054713;28;20203;-68
2021/12/11 10:39:51;;;;;;;12.00;9.20;;;5.70;99.90;;;;;;5054208;28;20219;-68
2021/12/11 10:42:19;;;;;;;12.48;8.50;;;5.80;99.90;;;;;;5054142;28;20290;-70
2021/12/11 10:44:50;;;;;;;9.65;8.35;;;5.80;99.90;;;;;;5054324;28;20300;-70
2021/12/11 10:47:20;;;;;;;11.32;8.63;;;5.70;99.90;;;;;;5054666;28;20389;-70
2021/12/11 10:49:48;;;;;;;8.23;6.90;;;5.80;99.90;;;;;;5054609;28;20266;-69
2021/12/11 10:52:19;;;;;;;9.77;8.30;;;5.70;99.90;;;;;;5054429;28;20239;-71
2021/12/11 10:54:47;;;;;;;9.05;8.15;;;5.70;99.90;;;;;;5054572;28;20681;-70
2021/12/11 10:57:16;;;;;;;11.25;9.23;;;5.70;99.90;;;;;;5054680;28;20204;-70
2021/12/11 10:59:46;;;;;;;10.00;8.25;;;5.90;99.90;;;;;;5054219;28;20314;-70
2021/12/11 11:02:17;;;;;;;10.43;8.27;;;5.90;99.90;;;;;;5054222;28;20563;-70
2021/12/11 11:04:49;;;;;;;8.25;7.32;;;5.80;99.90;;;;;;5054019;28;20210;-70
2021/12/11 11:07:16;;;;;;;9.52;8.52;;;5.80;99.90;;;;;;5054607;28;20602;-70
2021/12/11 11:09:43;;;;;;;10.57;8.50;;;5.80;99.90;;;;;;5054115;28;20282;-70
2021/12/11 11:12:15;;;;;;;10.25;8.50;;;5.80;99.90;;;;;;5054100;28;20278;-70
2021/12/11 11:14:43;;;;;;;10.60;9.50;;;5.70;99.90;;;;;;5053869;28;20207;-71
2021/12/11 11:17:13;;;;;;;10.02;9.02;;;5.90;99.90;;;;;;5053840;28;20214;-70
2021/12/11 11:19:41;;;;;;;10.70;8.80;;;5.90;99.90;;;;;;5053770;28;20210;-70
2021/12/11 11:22:11;;;;;;;12.82;9.32;;;6.00;99.90;;;;;;5053853;28;20614;-71
2021/12/11 11:24:42;;;;;;;9.20;7.80;;;6.10;99.90;;;;;;5054093;28;20582;-70
2021/12/11 11:27:10;;;;;;;9.75;7.45;;;6.10;99.90;;;;;;5053991;28;20205;-70
2021/12/11 11:29:39;;;;;;;10.43;9.00;;;6.00;99.90;;;;;;5053591;28;20199;-69
2021/12/11 11:32:10;;;;;;;11.02;9.45;;;6.00;99.90;;;;;;5053496;28;20227;-69
2021/12/11 11:34:40;;;;;;;11.70;8.57;;;6.00;99.90;;;;;;5053501;28;20207;-69
2021/12/11 11:37:11;;;;;;;9.50;7.75;;;6.00;99.90;;;;;;5053667;28;20203;-69
2021/12/11 11:39:39;;;;;;;7.65;6.70;;;5.90;99.90;;;;;;5054528;28;20199;-68
2021/12/11 11:42:12;;;;;;;9.73;8.35;;;5.80;99.90;;;;;;5054984;28;20223;-69
2021/12/11 11:44:42;;;;;;;10.75;8.50;;;5.80;99.90;;;;;;5054813;28;20203;-69
2021/12/11 11:47:12;;;;;;;9.77;8.55;;;5.70;99.90;;;;;;5055034;28;20249;-68
2021/12/11 11:49:39;;;;;;;10.90;7.63;;;5.70;99.90;;;;;;5054856;28;20199;-68
2021/12/11 11:52:10;;;;;;;8.80;6.55;;;5.60;99.90;;;;;;5054578;28;20684;-68
2021/12/11 11:54:40;;;;;;;8.23;7.43;;;5.60;99.90;;;;;;5055185;28;20547;-67
2021/12/11 11:57:11;;;;;;;12.07;8.15;;;5.60;99.90;;;;;;5054535;28;20207;-68
2021/12/11 11:59:39;;;;;;;11.25;8.55;;;5.70;99.90;;;;;;5054393;28;20218;-68
2021/12/11 12:02:10;;;;;;;9.50;8.43;;;5.70;99.90;;;;;;5054342;28;20227;-68
2021/12/11 12:04:38;;;;;;;9.55;8.25;;;5.70;99.90;;;;;;5054525;28;20194;-67
2021/12/11 12:07:06;;;;;;;10.30;9.18;;;5.70;99.90;;;;;;5054437;28;20217;-67
2021/12/11 12:09:37;;;;;;;11.80;10.55;;;5.80;99.90;;;;;;5054087;28;20238;-67
2021/12/11 12:12:06;;;;;;;10.05;8.38;;;5.80;99.90;;;;;;5054215;28;20226;-68
2021/12/11 12:14:35;;;;;;;8.70;7.65;;;5.80;99.90;;;;;;5054476;28;20209;-67
2021/12/11 12:17:02;;;;;;;9.80;8.25;;;5.80;99.90;;;;;;5054534;28;20203;-67
2021/12/11 12:19:29;;;;;;;10.98;8.63;;;5.80;99.90;;;;;;5054527;28;20306;-68
2021/12/11 12:21:59;;;;;;;10.85;7.90;;;5.90;99.90;;;;;;5054059;28;20231;-68
2021/12/11 12:24:31;;;;;;;10.02;8.70;;;5.90;99.90;;;;;;5053913;28;20217;-67
2021/12/11 12:27:01;;;;;;;8.65;7.75;;;5.90;99.90;;;;;;5054201;28;20207;-67
2021/12/11 12:29:29;;;;;;;10.30;8.40;;;5.80;99.90;;;;;;5054281;28;20206;-67
2021/12/11 12:32:00;;;;;;;9.90;8.02;;;5.80;99.90;;;;;;5054195;28;20234;-67
2021/12/11 12:34:29;;;;;;;12.18;9.50;;;5.90;99.90;;;;;;5053825;28;20208;-67
2021/12/11 12:36:58;;;;;;;12.25;9.70;;;5.90;99.90;;;;;;5053946;28;20298;-67
2021/12/11 12:39:33;;;;;;;11.02;7.80;;;6.00;99.90;;;;;;5054187;28;20546;-67
2021/12/11 12:42:16;;;;;;;10.30;8.18;;;6.00;99.90;;;;;;5053997;28;20230;-67
2021/12/11 12:44:44;;;;;;;8.57;7.68;;;6.00;99.90;;;;;;5053883;28;20688;-67
2021/12/11 12:47:17;;;;;;;7.15;5.57;;;6.00;99.90;;;;;;5053510;28;20203;-67
2021/12/11 12:49:47;;;;;;;7.82;6.45;;;5.80;99.90;;;;;;5053681;28;20662;-67
2021/12/11 12:52:17;;;;;;;11.13;7.78;;;5.80;99.90;;;;;;5053644;28;20219;-67
2021/12/11 12:54:45;;;;;;;9.48;7.68;;;5.80;99.90;;;;;;5053981;28;20199;-67
2021/12/11 12:57:18;;;;;;;8.13;6.60;;;5.80;99.90;;;;;;5053943;28;20207;-67
2021/12/11 12:59:53;;;;;;;8.30;7.20;;;5.70;99.90;;;;;;5053821;28;20218;-67
2021/12/11 13:02:24;;;;;;;9.65;8.32;;;5.70;99.90;;;;;;5053318;28;20313;-67
2021/12/11 13:04:54;;;;;;;9.00;7.90;;;5.70;99.90;;;;;;5053532;28;20294;-67
2021/12/11 13:07:22;;;;;;;8.98;6.90;;;5.80;99.90;;;;;;5053838;28;20294;-67
2021/12/11 13:09:52;;;;;;;9.00;6.65;;;5.80;99.90;;;;;;5053288;28;20212;-67
2021/12/11 13:12:24;;;;;;;7.20;6.50;;;5.80;99.90;;;;;;5054229;28;20215;-67